NFTV

Details ICAO NFTV (VAV)
Name VAVAU INTL
Region Fiji and Tonga
Timezone Pacific/Tongatapu (UTC+13.0)
Plans Departing 7
Arriving 9
Stats Elevation 236 ft / 72 m (AMSL)
Location -18.585490° -173.962837°
Runways 1
Magnetic Variation 12.898° E
Sunrise 2018-05-22 17:59:02 UTC / 2018-05-23 06:59:02 Local
Sunset 2018-05-23 05:08:56 UTC / 2018-05-23 18:08:56 Local
Advertisement - Login to hide

Runways

ID Width Length Bearing (true) Bearing (mag) Surface Threshold Offset Overrun Length
08 98 ft / 30 m 5,581 ft / 1,701 m 96.20° 83.30° Asphalt 1,677 ft / 511 m 0 ft / 0 m
26 98 ft / 30 m 5,581 ft / 1,701 m 276.20° 263.30° Asphalt 988 ft / 301 m 0 ft / 0 m

Map

Weather


0- 5 10 15 20 25 30 35+ Temperature / ° C

Clouds and Precipitation
Forecast for 2018-05-23 06:00 UTC. Updated 26 minutes ago

Ground ~20,000 ft ~40,000 ft Winds

METAR

NFTV 230300Z 08009KT 9999 SCT017 28/23 Q1011

TAF

TAF NFTV 222305Z 2300/2324 05009KT 9999 SCT018 SCT100

Frequencies

Tower 118.10 MHz FLT SVC
Warning: Do not use this data for real-world aviation or navigation. No guarantee of current accuracy is given.